Time;durP1;ratioP1;P1;durP2;ratioP2;P2;SDS_P1;SDS_P2;PMS_P1;PMS_P2;Temp;Humidity;BMP_temperature;BMP_pressure;BME280_temperature;BME280_humidity;BME280_pressure;Samples;Min_cycle;Max_cycle;Signal;HPM_P1;HPM_P2
2022/01/01 12:50:23;;;;;;;38.70;22.20;;;;;;;5.30;85.75;100939.37;103974;1289;599563;-72
2022/01/01 12:52:55;;;;;;;38.50;25.10;;;;;;;5.31;85.88;100939.83;105936;1265;62633;-72
2022/01/01 12:55:25;;;;;;;28.10;19.80;;;;;;;5.38;85.93;100943.29;106710;1256;61798;-71
2022/01/01 12:58:08;;;;;;;34.00;23.50;;;;;;;5.42;86.55;100946.39;106682;1255;73317;-71
2022/01/01 13:00:38;;;;;;;;;;;;;;;5.54;86.18;100946.18;106598;1255;71376;-74
2022/01/01 13:03:07;;;;;;;38.00;24.90;;;;;;;5.56;86.07;100946.40;106460;1254;218528;-68
2022/01/01 13:05:38;;;;;;;43.60;28.00;;;;;;;5.65;86.74;100950.14;106880;1252;72944;-73
2022/01/01 13:08:08;;;;;;;31.60;22.70;;;;;;;5.70;87.36;100948.87;106822;1252;61414;-70
2022/01/01 13:10:38;;;;;;;35.00;23.10;;;;;;;5.72;87.38;100949.30;106921;1252;59155;-71
2022/01/01 13:13:07;;;;;;;38.40;25.50;;;;;;;5.81;87.62;100959.02;106949;1252;72012;-71
2022/01/01 13:15:37;;;;;;;28.90;20.10;;;;;;;5.90;87.37;100962.06;106925;1251;73260;-71
2022/01/01 13:18:08;;;;;;;35.10;23.30;;;;;;;5.94;87.42;100962.05;106954;1251;70147;-70
2022/01/01 13:20:37;;;;;;;36.40;25.10;;;;;;;5.94;87.58;100958.59;106900;1253;72914;-71
2022/01/01 13:23:07;;;;;;;30.70;22.10;;;;;;;5.96;87.78;100963.86;106819;1252;63042;-77
2022/01/01 13:25:36;;;;;;;28.20;21.10;;;;;;;6.01;88.11;100965.70;106872;1252;61825;-74
2022/01/01 13:28:05;;;;;;;31.90;21.70;;;;;;;6.11;88.88;100963.80;106900;1251;72458;-75
2022/01/01 13:30:34;;;;;;;27.00;19.30;;;;;;;6.13;87.47;100966.48;106975;1251;70779;-77
2022/01/01 13:33:03;;;;;;;23.10;16.60;;;;;;;6.10;86.80;100964.94;106957;1252;68027;-81
2022/01/01 13:35:33;;;;;;;22.90;16.50;;;;;;;6.08;87.62;100973.45;107007;1252;73981;-74
2022/01/01 13:38:08;;;;;;;24.10;16.20;;;;;;;6.13;88.21;100968.37;106952;1252;62679;-75
2022/01/01 13:40:38;;;;;;;22.70;15.90;;;;;;;6.15;88.50;100971.41;106906;1252;58987;-77
2022/01/01 13:43:09;;;;;;;17.50;13.20;;;;;;;6.18;88.92;100971.59;106888;1253;70395;-76
2022/01/01 13:45:39;;;;;;;22.80;15.60;;;;;;;6.18;88.60;100968.30;106769;1252;71404;-69
2022/01/01 13:48:13;;;;;;;19.40;13.00;;;;;;;6.22;88.15;100979.36;106842;1251;71036;-68
2022/01/01 13:50:47;;;;;;;23.00;14.60;;;;;;;6.20;87.83;100982.55;106774;1253;74353;-69
2022/01/01 13:53:16;;;;;;;21.80;14.40;;;;;;;6.24;88.37;100984.09;106914;1251;62144;-71
2022/01/01 13:55:55;;;;;;;25.30;16.40;;;;;;;6.30;88.96;100985.69;107260;1252;59732;-90
2022/01/01 13:58:27;;;;;;;22.70;15.00;;;;;;;6.37;88.82;100985.20;107321;1251;71209;-89
2022/01/01 14:00:58;;;;;;;18.50;12.00;;;;;;;6.44;88.88;100986.90;107181;1252;71532;-79
2022/01/01 14:03:28;;;;;;;28.00;16.30;;;;;;;6.46;88.66;100990.41;107239;1252;71073;-83
2022/01/01 14:05:58;;;;;;;22.20;13.90;;;;;;;6.47;88.46;100991.06;107302;1252;73501;-87
2022/01/01 14:08:27;;;;;;;25.60;14.10;;;;;;;6.48;88.61;100991.20;107450;1253;62121;-86
2022/01/01 14:11:17;;;;;;;14.70;10.50;;;;;;;6.51;89.02;100993.45;107081;1252;59069;-84
2022/01/01 14:13:46;;;;;;;15.30;9.70;;;;;;;6.57;89.32;100993.83;107186;1252;70923;-85
2022/01/01 14:16:21;;;;;;;14.70;9.90;;;;;;;6.60;89.33;100992.62;107010;1254;70955;-86
2022/01/01 14:18:50;;;;;;;15.80;9.80;;;;;;;6.65;89.37;100997.95;107068;1253;68281;-85
2022/01/01 14:21:25;;;;;;;14.40;9.40;;;;;;;6.68;89.51;101003.14;106858;1252;73007;-81
2022/01/01 14:24:03;;;;;;;13.00;8.00;;;;;;;6.71;89.79;101002.48;106983;1254;62253;-80
2022/01/01 14:26:45;;;;;;;11.80;8.10;;;;;;;6.63;87.89;101008.44;107269;1252;61409;-81
2022/01/01 14:29:15;;;;;;;11.70;7.30;;;;;;;6.80;89.19;101009.95;108546;1252;73245;-79
2022/01/01 14:31:45;;;;;;;9.60;7.00;;;;;;;6.87;89.29;101009.80;107053;1252;72514;-76
2022/01/01 14:34:18;;;;;;;10.00;6.80;;;;;;;6.93;89.20;101012.91;106718;1252;71516;-74
2022/01/01 14:36:50;;;;;;;11.30;8.40;;;;;;;6.94;88.79;101010.61;106778;1252;73914;-71
2022/01/01 14:39:19;;;;;;;12.50;8.40;;;;;;;6.88;88.25;101008.48;106824;1252;63784;-74
2022/01/01 14:41:50;;;;;;;12.70;7.80;;;;;;;6.81;88.10;101011.15;106901;1253;59356;-79
2022/01/01 14:44:19;;;;;;;12.20;7.80;;;;;;;6.71;88.04;101015.48;106983;1252;72837;-78
2022/01/01 14:47:05;;;;;;;12.90;8.90;;;;;;;6.63;87.53;101017.75;106669;1255;71187;-76
2022/01/01 14:49:39;;;;;;;12.40;9.10;;;;;;;6.51;87.18;101016.79;106963;1252;70224;-78
2022/01/01 14:52:19;;;;;;;13.60;9.30;;;;;;;6.49;88.38;101028.86;107147;1251;71850;-76
2022/01/01 14:55:05;;;;;;;12.90;9.40;;;;;;;6.47;88.01;101037.96;107039;1252;61493;-79
2022/01/01 14:58:05;;;;;;;15.80;9.60;;;;;;;6.39;87.27;101035.95;107233;1251;61185;-81
2022/01/01 15:00:38;;;;;;;12.30;8.50;;;;;;;6.40;87.46;101040.73;107020;1251;71587;-73
2022/01/01 15:03:08;;;;;;;12.10;8.60;;;;;;;6.36;87.83;101042.31;106781;1253;70807;-76
2022/01/01 15:05:39;;;;;;;17.20;11.10;;;;;;;6.37;88.39;101040.02;107040;1252;70883;-71
2022/01/01 15:08:13;;;;;;;15.80;12.10;;;;;;;6.32;88.62;101039.77;107221;1252;73712;-72
2022/01/01 15:10:44;;;;;;;20.20;13.00;;;;;;;6.18;87.97;101039.38;107268;1252;61222;-75
2022/01/01 15:13:16;;;;;;;20.20;14.00;;;;;;;6.04;87.33;101045.93;107402;1253;61341;-72
2022/01/01 15:15:47;;;;;;;20.10;14.30;;;;;;;5.90;87.48;101046.42;107705;1252;70616;-77
2022/01/01 15:18:19;;;;;;;29.70;19.40;;;;;;;5.74;87.65;101046.64;107256;1251;71440;-78
2022/01/01 15:20:57;;;;;;;22.80;15.10;;;;;;;5.72;88.52;101048.13;106887;1252;72378;-79
2022/01/01 15:23:42;;;;;;;18.40;13.50;;;;;;;5.68;88.75;101050.55;107104;1253;73533;-79
2022/01/01 15:26:14;;;;;;;27.30;15.60;;;;;;;5.68;89.10;101054.38;107119;1251;62262;-76
2022/01/01 15:28:45;;;;;;;26.20;16.40;;;;;;;5.71;89.75;101054.93;107201;1253;59715;-77
2022/01/01 15:31:24;;;;;;;23.80;15.60;;;;;;;5.58;88.29;101060.02;107164;1252;73415;-75
2022/01/01 15:34:00;;;;;;;27.80;16.80;;;;;;;5.62;89.49;101062.23;107089;1252;72372;-77
2022/01/01 15:36:38;;;;;;;25.40;16.60;;;;;;;5.56;89.44;101065.96;106904;1252;68668;-79
2022/01/01 15:39:10;;;;;;;26.10;16.70;;;;;;;5.51;89.51;101067.08;107200;1252;72488;-79
2022/01/01 15:41:54;;;;;;;24.30;16.50;;;;;;;5.53;90.01;101066.64;107199;1252;61093;-76
2022/01/01 15:44:24;;;;;;;23.50;14.50;;;;;;;5.53;90.43;101070.75;107065;1251;59557;-78
2022/01/01 15:46:54;;;;;;;21.10;12.60;;;;;;;5.56;90.37;101077.35;107231;1252;72662;-77
2022/01/01 15:49:23;;;;;;;16.90;11.40;;;;;;;5.66;90.73;101079.70;107135;1251;71418;-75
2022/01/01 15:51:53;;;;;;;14.10;10.20;;;;;;;5.72;90.66;101084.74;107314;1250;70197;-77
2022/01/01 15:54:22;;;;;;;18.30;10.90;;;;;;;5.72;89.92;101086.83;107073;1251;72536;-73
2022/01/01 15:57:20;;;;;;;15.30;10.20;;;;;;;5.71;88.33;101091.19;107280;1251;59615;-75
2022/01/01 16:00:01;;;;;;;16.10;10.00;;;;;;;5.90;90.17;101094.48;107151;1251;58805;-76
2022/01/01 16:03:01;;;;;;;14.50;10.00;;;;;;;5.89;90.09;101099.54;107129;1253;71250;-77
2022/01/01 16:05:59;;;;;;;17.20;11.60;;;;;;;5.89;90.03;101109.06;107234;1253;71922;-78
2022/01/01 16:08:35;;;;;;;20.00;13.80;;;;;;;5.94;90.18;101107.45;107194;1253;70681;-75
2022/01/01 16:11:10;;;;;;;18.80;13.60;;;;;;;5.81;88.10;101108.91;107281;1252;74392;-74
2022/01/01 16:13:46;;;;;;;19.30;12.40;;;;;;;5.63;87.26;101110.93;107222;1250;64614;-74
2022/01/01 16:16:15;;;;;;;21.40;13.20;;;;;;;5.44;87.63;101111.43;107288;1253;60541;-74
2022/01/01 16:18:47;;;;;;;18.30;12.10;;;;;;;5.29;88.33;101119.02;107113;1253;70059;-78
2022/01/01 16:21:20;;;;;;;19.60;12.90;;;;;;;5.28;88.21;101122.66;107262;1252;71270;-79
2022/01/01 16:23:50;;;;;;;21.50;15.80;;;;;;;5.31;88.37;101128.58;107088;1252;71663;-78
2022/01/01 16:26:23;;;;;;;21.40;14.30;;;;;;;5.37;89.42;101130.92;107272;1253;74502;-80
2022/01/01 16:28:52;;;;;;;20.50;14.00;;;;;;;5.32;89.54;101128.55;107316;1251;61783;-78
2022/01/01 16:31:21;;;;;;;19.30;14.40;;;;;;;5.24;88.08;101122.66;107331;1250;62227;-76
2022/01/01 16:33:52;;;;;;;19.00;13.80;;;;;;;5.24;87.13;101122.34;108494;1253;71715;-74
2022/01/01 16:36:25;;;;;;;22.60;15.10;;;;;;;5.21;86.50;101122.98;108257;1251;70972;-76
2022/01/01 16:39:02;;;;;;;24.00;15.30;;;;;;;5.20;86.35;101125.08;107390;1251;70194;-75
2022/01/01 16:41:54;;;;;;;21.80;15.20;;;;;;;5.29;87.35;101126.61;107002;1253;71259;-79
2022/01/01 16:44:42;;;;;;;22.00;15.20;;;;;;;5.31;89.75;101126.52;107250;1250;62175;-74
2022/01/01 16:47:14;;;;;;;23.70;16.00;;;;;;;5.17;89.67;101112.27;107273;1253;61431;-82
2022/01/01 16:50:14;;;;;;;23.50;14.50;;;;;;;5.07;88.96;101114.98;107381;1252;73688;-84
2022/01/01 16:52:57;;;;;;;21.70;14.70;;;;;;;5.01;87.69;101110.57;107110;1253;71144;-82
2022/01/01 16:55:33;;;;;;;23.00;15.00;;;;;;;4.99;87.44;101111.66;107173;1249;67956;-83
2022/01/01 16:58:14;;;;;;;21.60;15.20;;;;;;;4.94;86.55;101109.64;107285;1251;72351;-83
2022/01/01 17:00:52;;;;;;;23.00;16.00;;;;;;;4.89;86.61;101113.45;107752;1249;62159;-81
2022/01/01 17:03:46;;;;;;;27.70;15.70;;;;;;;4.97;87.96;101120.59;107342;1252;60928;-78
2022/01/01 17:06:17;;;;;;;22.40;15.00;;;;;;;5.01;89.39;101131.09;107117;1253;71512;-83
2022/01/01 17:08:47;;;;;;;20.60;14.60;;;;;;;4.95;89.69;101133.41;107164;1253;69610;-80
2022/01/01 17:11:16;;;;;;;23.40;17.20;;;;;;;4.83;89.01;101134.27;107317;1253;70604;-77
2022/01/01 17:13:47;;;;;;;23.00;16.20;;;;;;;4.82;88.53;101131.23;107357;1253;72737;-75
2022/01/01 17:17:11;;;;;;;22.40;15.50;;;;;;;4.83;87.53;101127.35;107204;1252;63062;-79
2022/01/01 17:20:07;;;;;;;;;;;;;;;4.90;87.86;101126.05;107450;1249;59564;-72
2022/01/01 17:23:12;;;;;;;27.00;18.00;;;;;;;4.90;88.55;101122.26;107320;1251;72058;-77
2022/01/01 17:25:46;;;;;;;28.10;21.00;;;;;;;4.94;87.75;101128.98;107372;1249;71545;-78
2022/01/01 17:28:29;;;;;;;24.10;17.90;;;;;;;4.96;87.04;101133.55;107080;1253;71205;-76
2022/01/01 17:31:02;;;;;;;29.80;20.30;;;;;;;5.03;86.98;101135.14;107162;1252;72652;-78
2022/01/01 17:33:48;;;;;;;27.20;19.80;;;;;;;5.03;86.48;101128.06;107361;1251;61320;-76
2022/01/01 17:36:27;;;;;;;26.60;17.00;;;;;;;5.03;85.99;101126.36;107271;1251;59331;-76
2022/01/01 17:41:57;;;;;;;24.90;17.70;;;;;;;4.98;85.27;101132.61;107160;1251;72661;-78
2022/01/01 17:44:26;;;;;;;24.20;16.90;;;;;;;5.01;85.76;101135.59;106853;1252;70964;-76
2022/01/01 17:46:56;;;;;;;25.20;17.20;;;;;;;5.11;88.04;101135.49;107310;1251;73505;-79
2022/01/01 17:49:30;;;;;;;19.60;14.90;;;;;;;5.02;89.17;101146.94;107292;1250;62928;-78
2022/01/01 17:52:04;;;;;;;23.50;14.60;;;;;;;5.05;89.43;101153.17;107302;1253;59346;-77
2022/01/01 17:54:33;;;;;;;24.20;15.20;;;;;;;5.02;90.02;101156.23;107215;1251;72804;-77
2022/01/01 17:57:05;;;;;;;19.70;13.80;;;;;;;5.02;90.60;101156.59;107416;1251;70752;-75
2022/01/01 17:59:36;;;;;;;20.50;14.40;;;;;;;5.03;90.88;101150.48;107493;1253;69871;-76
2022/01/01 18:02:07;;;;;;;21.40;15.40;;;;;;;4.99;90.98;101160.02;107014;1252;71411;-79
2022/01/01 18:04:36;;;;;;;19.70;13.80;;;;;;;5.00;90.74;101157.38;107148;1253;62212;-77
2022/01/01 18:07:13;;;;;;;21.70;15.70;;;;;;;4.97;90.17;101160.29;107066;1251;60606;-76
2022/01/01 18:09:51;;;;;;;22.30;16.10;;;;;;;4.97;88.86;101165.77;107234;1251;74462;-75
2022/01/01 18:12:31;;;;;;;20.80;15.40;;;;;;;5.01;87.29;101173.54;107274;1251;73930;-77
2022/01/01 18:15:02;;;;;;;23.10;15.30;;;;;;;4.99;86.06;101177.29;107108;1254;69321;-77
2022/01/01 18:17:35;;;;;;;22.90;14.70;;;;;;;5.01;86.03;101180.79;107363;1251;71110;-77
2022/01/01 18:20:07;;;;;;;24.60;17.70;;;;;;;5.13;87.54;101183.23;107180;1252;63006;-77
2022/01/01 18:22:55;;;;;;;26.60;17.50;;;;;;;5.19;90.17;101186.59;107449;1251;60804;-76
2022/01/01 18:25:35;;;;;;;23.80;16.20;;;;;;;5.04;88.79;101198.66;107289;1251;71260;-76
2022/01/01 18:28:27;;;;;;;23.00;15.90;;;;;;;4.95;86.21;101195.73;107331;1253;69473;-77
2022/01/01 18:30:59;;;;;;;26.00;15.50;;;;;;;4.96;85.77;101202.08;107394;1251;69796;-75
2022/01/01 18:33:29;;;;;;;25.50;16.10;;;;;;;4.99;85.65;101199.70;107411;1251;72532;-73
2022/01/01 18:35:59;;;;;;;23.40;15.90;;;;;;;5.01;85.36;101205.14;107208;1251;61208;-77
2022/01/01 18:38:34;;;;;;;23.30;16.20;;;;;;;5.01;84.92;101209.80;107196;1251;60392;-78
2022/01/01 18:41:04;;;;;;;22.00;15.90;;;;;;;4.94;84.34;101211.45;107335;1251;72171;-79
2022/01/01 18:43:33;;;;;;;22.50;15.20;;;;;;;4.91;85.17;101202.45;107285;1251;71433;-79
2022/01/01 18:46:02;;;;;;;25.10;16.10;;;;;;;4.86;85.49;101210.78;107161;1253;70659;-78
2022/01/01 18:48:31;;;;;;;25.80;17.00;;;;;;;4.90;85.51;101215.44;107328;1251;73172;-79
2022/01/01 18:51:18;;;;;;;24.00;15.40;;;;;;;4.95;88.17;101210.59;107078;1250;62672;-76
2022/01/01 18:54:04;;;;;;;23.80;15.90;;;;;;;4.83;87.16;101216.77;107325;1250;62137;-75
2022/01/01 18:56:57;;;;;;;25.90;15.80;;;;;;;4.83;86.50;101217.77;107332;1250;74207;-74
2022/01/01 18:59:38;;;;;;;23.20;16.00;;;;;;;4.83;86.56;101215.91;107391;1251;72009;-75
2022/01/01 19:02:08;;;;;;;23.10;16.00;;;;;;;4.81;86.25;101213.73;107419;1251;71111;-82
2022/01/01 19:04:54;;;;;;;27.20;17.70;;;;;;;4.86;86.18;101207.84;107458;1251;71863;-77
2022/01/01 19:07:24;;;;;;;22.40;15.60;;;;;;;4.86;85.60;101204.40;107917;1251;60126;-76
2022/01/01 19:10:06;;;;;;;26.20;17.40;;;;;;;4.89;84.99;101204.98;107260;1251;61374;-76
2022/01/01 19:13:10;;;;;;;23.00;14.30;;;;;;;4.88;85.58;101204.83;107353;1251;73752;-79
2022/01/01 19:15:45;;;;;;;20.40;13.60;;;;;;;4.92;87.17;101207.23;107282;1251;69982;-84
2022/01/01 19:18:18;;;;;;;16.90;10.70;;;;;;;5.15;89.59;101218.76;107460;1251;68843;-81
2022/01/01 19:20:50;;;;;;;18.20;11.70;;;;;;;5.34;90.65;101225.17;107326;1250;75475;-77
2022/01/01 19:23:24;;;;;;;12.80;9.00;;;;;;;5.56;91.15;101226.83;107145;1251;63503;-76
2022/01/01 19:25:54;;;;;;;12.50;8.20;;;;;;;5.79;90.84;101220.30;107368;1251;62049;-79
2022/01/01 19:28:31;;;;;;;13.30;8.00;;;;;;;6.00;91.07;101212.09;107135;1251;73677;-79
2022/01/01 19:31:05;;;;;;;12.90;7.40;;;;;;;6.18;91.09;101207.69;107318;1251;70462;-75
2022/01/01 19:33:35;;;;;;;11.10;7.00;;;;;;;6.31;91.37;101201.70;107258;1250;70615;-73
2022/01/01 19:36:04;;;;;;;10.20;7.30;;;;;;;6.38;91.17;101193.77;106968;1253;72871;-72
2022/01/01 19:38:33;;;;;;;8.90;6.60;;;;;;;6.38;89.31;101205.54;107337;1251;61144;-80
2022/01/01 19:41:23;;;;;;;11.30;6.40;;;;;;;6.53;90.43;101219.36;107355;1251;61339;-74
2022/01/01 19:44:03;;;;;;;9.10;6.40;;;;;;;6.60;90.89;101224.55;106957;1253;72183;-76
2022/01/01 19:46:50;;;;;;;9.90;5.90;;;;;;;6.61;91.18;101220.32;107436;1251;70779;-72
2022/01/01 19:49:22;;;;;;;12.20;7.20;;;;;;;6.63;90.87;101224.26;107268;1251;71016;-78
2022/01/01 19:51:51;;;;;;;10.60;7.10;;;;;;;6.61;91.01;101222.05;107237;1251;73042;-76
2022/01/01 19:54:20;;;;;;;9.50;6.70;;;;;;;6.58;91.06;101218.91;106990;1254;62442;-74
2022/01/01 19:56:53;;;;;;;8.60;5.70;;;;;;;6.57;91.01;101218.11;107330;1251;62092;-79
2022/01/01 19:59:23;;;;;;;7.40;5.50;;;;;;;6.59;91.38;101217.00;107148;1251;72881;-82
2022/01/01 20:01:52;;;;;;;7.90;5.30;;;;;;;6.58;91.10;101218.77;107285;1252;69987;-78
2022/01/01 20:04:21;;;;;;;9.80;6.40;;;;;;;6.58;90.74;101214.59;107286;1254;68638;-75
2022/01/01 20:06:50;;;;;;;10.30;5.90;;;;;;;6.56;90.48;101215.72;107186;1253;71924;-78
2022/01/01 20:09:20;;;;;;;8.70;5.60;;;;;;;6.56;90.80;101219.53;107130;1251;59856;-81
2022/01/01 20:11:49;;;;;;;8.10;5.70;;;;;;;6.55;90.11;101231.02;107197;1251;59752;-77
2022/01/01 20:14:19;;;;;;;7.60;5.20;;;;;;;6.56;90.41;101232.52;107368;1251;73642;-77
2022/01/01 20:16:47;;;;;;;8.50;6.10;;;;;;;6.56;90.46;101236.36;107181;1253;72269;-77
2022/01/01 20:19:16;;;;;;;7.70;5.50;;;;;;;6.55;90.22;101235.35;107193;1251;68767;-78
2022/01/01 20:21:45;;;;;;;9.60;5.80;;;;;;;6.55;90.48;101235.35;107238;1250;72299;-75
2022/01/01 20:24:15;;;;;;;11.60;5.90;;;;;;;6.48;89.44;101234.62;107352;1251;62277;-74
2022/01/01 20:26:44;;;;;;;9.10;5.70;;;;;;;6.47;88.99;101239.69;107045;1251;60629;-75
2022/01/01 20:29:12;;;;;;;9.40;5.90;;;;;;;6.43;88.35;101240.94;107234;1251;74477;-80
2022/01/01 20:31:42;;;;;;;9.10;5.90;;;;;;;6.47;89.42;101250.95;107332;1251;70978;-73
2022/01/01 20:34:11;;;;;;;9.00;5.60;;;;;;;6.43;89.50;101253.94;107181;1250;70913;-73
2022/01/01 20:36:46;;;;;;;10.30;5.90;;;;;;;6.40;89.70;101249.73;107015;1250;72491;-73
2022/01/01 20:39:15;;;;;;;8.40;5.80;;;;;;;6.35;90.09;101249.09;107075;1251;62862;-71
2022/01/01 20:41:45;;;;;;;10.80;6.20;;;;;;;6.31;89.74;101255.33;107458;1251;59686;-78
2022/01/01 20:44:15;;;;;;;10.60;6.90;;;;;;;6.30;89.68;101259.71;107268;1251;71678;-81
2022/01/01 20:46:44;;;;;;;10.40;6.40;;;;;;;6.30;89.71;101265.38;107374;1251;72211;-78
2022/01/01 20:49:13;;;;;;;7.80;5.30;;;;;;;6.34;90.25;101273.38;107317;1251;71060;-81
2022/01/01 20:51:43;;;;;;;6.60;4.70;;;;;;;6.37;90.02;101274.09;107359;1251;74259;-77
2022/01/01 20:54:19;;;;;;;7.80;5.20;;;;;;;6.31;88.15;101272.96;107341;1251;61382;-78
2022/01/01 20:56:53;;;;;;;7.60;5.20;;;;;;;6.34;89.05;101275.94;107242;1251;61763;-82
2022/01/01 20:59:22;;;;;;;8.10;4.80;;;;;;;6.35;89.78;101280.73;107329;1251;74288;-79
2022/01/01 21:02:23;;;;;;;7.80;5.00;;;;;;;6.28;89.78;101282.64;107296;1251;71795;-82
2022/01/01 21:05:08;;;;;;;7.10;5.10;;;;;;;6.19;90.00;101287.38;107165;1252;70192;-80
2022/01/01 21:07:37;;;;;;;9.00;5.70;;;;;;;6.10;89.92;101290.19;107164;1251;73085;-81
2022/01/01 21:10:08;;;;;;;8.60;5.80;;;;;;;6.02;89.68;101296.40;107205;1251;62129;-82
2022/01/01 21:12:41;;;;;;;8.80;5.40;;;;;;;5.91;88.16;101299.12;107275;1251;61626;-81
2022/01/01 21:15:11;;;;;;;9.10;5.30;;;;;;;5.93;89.78;101300.61;107304;1251;75023;-77
2022/01/01 21:17:41;;;;;;;9.00;5.90;;;;;;;5.85;88.87;101307.15;107248;1251;73708;-75
2022/01/01 21:20:11;;;;;;;8.20;5.20;;;;;;;5.87;89.89;101313.63;107301;1251;70966;-81
2022/01/01 21:22:40;;;;;;;7.00;4.90;;;;;;;5.82;88.88;101310.88;107145;1252;72440;-80
2022/01/01 21:25:09;;;;;;;8.50;5.20;;;;;;;5.78;87.02;101319.71;107254;1251;61329;-80
2022/01/01 21:27:38;;;;;;;8.30;5.40;;;;;;;5.87;88.62;101323.31;107316;1249;59111;-80
2022/01/01 21:30:08;;;;;;;7.90;5.80;;;;;;;5.81;87.15;101325.64;107348;1251;73648;-77
2022/01/01 21:32:37;;;;;;;9.90;6.50;;;;;;;5.74;86.38;101329.20;107216;1253;71911;-77
2022/01/01 21:35:06;;;;;;;8.50;5.90;;;;;;;5.79;88.74;101331.79;107295;1251;70645;-79
2022/01/01 21:37:35;;;;;;;9.30;6.20;;;;;;;5.62;85.43;101329.04;107338;1250;71861;-81
2022/01/01 21:40:05;;;;;;;8.20;6.40;;;;;;;5.64;86.15;101335.01;107272;1251;61391;-79
2022/01/01 21:42:34;;;;;;;9.90;6.80;;;;;;;5.53;84.16;101337.88;107283;1250;59282;-80
2022/01/01 21:45:05;;;;;;;10.70;6.20;;;;;;;5.59;85.43;101340.03;106968;1252;71163;-78
2022/01/01 21:47:34;;;;;;;8.70;4.40;;;;;;;5.70;88.60;101352.91;107353;1251;72091;-76
2022/01/01 21:50:04;;;;;;;8.70;4.30;;;;;;;5.87;87.82;101355.84;107224;1250;70937;-78
2022/01/01 21:52:33;;;;;;;6.80;4.30;;;;;;;6.15;88.35;101362.45;107224;1251;72503;-77
2022/01/01 21:55:02;;;;;;;5.70;4.30;;;;;;;6.34;88.08;101367.45;107254;1251;62488;-78
2022/01/01 21:57:31;;;;;;;7.70;4.90;;;;;;;6.45;86.33;101375.60;107085;1251;60564;-80
2022/01/01 22:00:00;;;;;;;8.10;4.50;;;;;;;6.34;82.73;101374.23;107189;1250;74062;-79
2022/01/01 22:02:31;;;;;;;7.60;4.50;;;;;;;6.44;84.86;101372.73;107188;1251;71253;-80
2022/01/01 22:05:02;;;;;;;6.80;4.20;;;;;;;6.48;86.35;101377.76;107247;1251;69659;-77
2022/01/01 22:07:32;;;;;;;8.80;4.50;;;;;;;6.50;86.38;101381.80;107130;1251;75339;-77
2022/01/01 22:10:03;;;;;;;7.20;4.30;;;;;;;6.49;86.05;101384.45;107227;1251;61095;-78
2022/01/01 22:12:33;;;;;;;6.20;4.20;;;;;;;6.35;82.53;101390.43;107276;1250;59890;-78
2022/01/01 22:15:02;;;;;;;7.60;4.50;;;;;;;6.43;86.37;101396.33;106963;1251;74152;-78
2022/01/01 22:17:31;;;;;;;5.60;3.70;;;;;;;6.43;86.86;101400.64;106986;1252;70935;-77
2022/01/01 22:20:00;;;;;;;5.00;3.80;;;;;;;6.43;85.77;101405.65;107233;1251;69991;-81
2022/01/01 22:22:29;;;;;;;6.80;3.90;;;;;;;6.39;83.80;101407.55;107172;1250;74848;-80
2022/01/01 22:24:58;;;;;;;6.10;4.00;;;;;;;6.42;84.05;101412.95;107167;1251;64018;-79
2022/01/01 22:27:27;;;;;;;9.30;5.20;;;;;;;6.37;83.55;101422.86;107313;1249;61837;-77
2022/01/01 22:29:55;;;;;;;7.60;4.80;;;;;;;6.33;84.10;101424.60;107249;1251;74214;-77
2022/01/01 22:32:24;;;;;;;8.20;4.60;;;;;;;6.23;82.32;101426.58;107323;1251;71076;-77
2022/01/01 22:34:53;;;;;;;6.00;3.60;;;;;;;6.15;82.25;101428.12;107352;1251;68732;-81
2022/01/01 22:37:22;;;;;;;7.50;3.40;;;;;;;6.19;81.85;101435.60;107464;1251;72442;-80
2022/01/01 22:39:51;;;;;;;7.80;3.60;;;;;;;6.22;81.90;101435.98;107292;1250;60698;-82
2022/01/01 22:42:20;;;;;;;5.80;3.50;;;;;;;6.20;81.53;101435.73;107228;1251;60946;-75
2022/01/01 22:44:49;;;;;;;4.00;2.80;;;;;;;6.19;81.38;101439.21;107214;1251;72914;-76
2022/01/01 22:47:20;;;;;;;3.70;2.80;;;;;;;6.22;80.19;101457.42;107267;1251;70485;-77
2022/01/01 22:49:49;;;;;;;5.70;3.60;;;;;;;6.17;79.50;101462.30;107237;1251;68792;-79
2022/01/01 22:52:18;;;;;;;5.40;3.00;;;;;;;6.17;80.91;101465.24;107251;1250;73932;-78
2022/01/01 22:54:47;;;;;;;4.40;2.50;;;;;;;6.11;80.05;101466.00;107232;1251;62224;-77
2022/01/01 22:57:15;;;;;;;4.20;2.90;;;;;;;6.05;79.47;101466.05;107196;1250;61765;-77
2022/01/01 22:59:44;;;;;;;5.10;2.40;;;;;;;5.95;79.54;101463.21;107242;1249;73425;-77
2022/01/01 23:02:13;;;;;;;5.10;3.20;;;;;;;5.86;79.52;101460.28;107172;1250;71447;-77
2022/01/01 23:04:42;;;;;;;3.30;2.20;;;;;;;5.77;79.81;101453.17;107143;1250;68311;-77
2022/01/01 23:07:12;;;;;;;4.90;2.70;;;;;;;5.76;79.46;101446.31;107198;1251;71230;-78
2022/01/01 23:09:41;;;;;;;4.60;2.80;;;;;;;5.72;79.68;101459.47;107194;1251;60613;-79
2022/01/01 23:12:10;;;;;;;4.60;2.60;;;;;;;5.70;80.47;101456.93;107262;1251;61385;-78
2022/01/01 23:14:38;;;;;;;4.90;2.80;;;;;;;5.64;81.14;101457.89;107201;1250;75060;-79
2022/01/01 23:17:10;;;;;;;5.50;2.80;;;;;;;5.59;80.25;101461.00;107241;1251;73127;-77
2022/01/01 23:19:39;;;;;;;4.70;2.70;;;;;;;5.50;80.40;101469.30;107266;1250;70994;-79
2022/01/01 23:22:11;;;;;;;4.20;2.90;;;;;;;5.41;81.41;101470.86;107227;1250;72059;-79
2022/01/01 23:24:41;;;;;;;5.40;2.90;;;;;;;5.34;80.19;101470.28;107299;1251;59801;-79
2022/01/01 23:27:14;;;;;;;7.10;3.70;;;;;;;5.37;80.35;101474.33;107546;1251;61735;-79
2022/01/01 23:29:43;;;;;;;5.00;3.20;;;;;;;5.37;80.04;101474.84;107235;1251;75048;-77
2022/01/01 23:32:13;;;;;;;5.00;3.30;;;;;;;5.33;79.57;101472.89;107105;1251;69764;-79
2022/01/01 23:34:51;;;;;;;3.70;2.40;;;;;;;5.31;80.62;101473.33;107199;1251;68728;-78
2022/01/01 23:37:21;;;;;;;10.10;3.20;;;;;;;5.29;79.79;101484.80;107226;1251;71384;-78
2022/01/01 23:39:50;;;;;;;4.70;2.70;;;;;;;5.27;79.25;101502.66;107261;1250;62981;-77
2022/01/01 23:42:25;;;;;;;5.50;2.20;;;;;;;5.25;78.41;101509.48;107188;1250;62462;-77
2022/01/01 23:44:55;;;;;;;3.90;2.10;;;;;;;5.25;78.24;101506.91;107324;1251;72810;-77
2022/01/01 23:47:24;;;;;;;4.10;2.40;;;;;;;5.24;76.64;101507.78;107120;1251;69606;-77
2022/01/01 23:49:53;;;;;;;4.00;1.90;;;;;;;5.27;77.63;101506.81;107287;1250;68260;-76
2022/01/01 23:52:30;;;;;;;3.70;1.80;;;;;;;5.32;77.55;101518.38;107219;1251;72455;-78
2022/01/01 23:55:09;;;;;;;4.60;2.30;;;;;;;5.26;76.54;101513.05;107228;1251;63535;-77
2022/01/01 23:58:09;;;;;;;2.70;1.60;;;;;;;5.19;76.20;101517.14;107247;1251;61081;-75
